Pitts, GA

1:16 PM EST on February 01, 2015 (GMT -0500)
Crisp County-Cordele | Change Station
CLOSE
Current Station
Airport
Location: Crisp Cnty-Cordele AP, Cordel,
Elevation: 308 ft
Nearby Weather Stations

Elev 308 ft 31.99 °N, 83.77 °W | Updated 21 minutes ago

Clear
Clear
70 °F
Feels Like 70 °F
N
16
Wind Variable Wind from South
Gusts 21 mph

Today
High -- | Low -- °F
--% Chance of Precip.
Yesterday
High -- | Low -- °F
Precip. -- in
7:28 AM 6:08 PM
Waxing Gibbous, 95% visible
Pressure 30.12 in
Visibility 10.0 miles
Clouds Scattered Clouds 4100 ft
Scattered Clouds 5000 ft
Dew Point 48 °F
Humidity 45%
Rainfall 0.00 in
Snow Depth Not available.
UV 5 out of 12
Pollen 4.00 out of 12
Air Quality Not available.
Flu Activity Not available.
METAR KCKF 011755Z AUTO 19014G18KT 10SM SCT041 SCT050 21/09 A3012 RMK AO2 T02120087 10213 20049

More Conditions Fewer Conditions

Pressure 30.12 in
Visibility 10.0 miles
Clouds Scattered Clouds 4100 ft
Scattered Clouds 5000 ft
Dew Point 48 °F
Humidity 45%
Rainfall 0.00 in
Snow Depth Not available.
UV 5 out of 12
Pollen 4.00 out of 12
Air Quality Not available.
Flu Activity Not available.
METAR KCKF 011755Z AUTO 19014G18KT 10SM SCT041 SCT050 21/09 A3012 RMK AO2 T02120087 10213 20049

More Conditions Fewer Conditions

10-Day Weather Forecast

Almanac

Astronomy

Feb. 01, 2015 Rise Set
Actual Time
Civil Twilight
Nautical Twilight
Astronomical Twilight
Moon
Length of Visible Light
Length of Day
Tomorrow will be .
, % of the Moon is Illuminated

Today's Extremes

State Highs State Lows

Community

WunderPhotos

Upload Photos

1,792,420 photos uploaded!

WunderBlogs® & News

Nearby

Air Quality

  Air Quality AQ Index Pollutant
Not available.

Snow Depth

Station Depth Elevation

Earthquake Activity

City Distance Mag. Time & Date
Minimum magnitude displayed is 2.5.

Coastal Water Temperatures

Place Temperature

Nearby Weather Stations